sensor_id;sensor_type;location;lat;lon;timestamp;P1;durP1;ratioP1;P2;durP2;ratioP2
70450;SDS011;58869;51.982;4.450;2024-03-06T00:01:52;50.19;;;48.23;;
70450;SDS011;58869;51.982;4.450;2024-03-06T00:04:21;49.78;;;48.19;;
70450;SDS011;58869;51.982;4.450;2024-03-06T00:06:46;50.75;;;48.76;;
70450;SDS011;58869;51.982;4.450;2024-03-06T00:09:12;51.13;;;48.66;;
70450;SDS011;58869;51.982;4.450;2024-03-06T00:11:37;51.05;;;48.92;;
70450;SDS011;58869;51.982;4.450;2024-03-06T00:14:03;51.13;;;49.13;;
70450;SDS011;58869;51.982;4.450;2024-03-06T00:16:30;50.54;;;48.53;;
70450;SDS011;58869;51.982;4.450;2024-03-06T00:18:59;50.04;;;48.14;;
70450;SDS011;58869;51.982;4.450;2024-03-06T00:21:24;50.16;;;48.42;;
70450;SDS011;58869;51.982;4.450;2024-03-06T00:23:50;51.13;;;48.98;;
70450;SDS011;58869;51.982;4.450;2024-03-06T00:26:15;50.93;;;48.80;;
70450;SDS011;58869;51.982;4.450;2024-03-06T00:28:41;50.33;;;48.27;;
70450;SDS011;58869;51.982;4.450;2024-03-06T00:31:06;49.49;;;47.20;;
70450;SDS011;58869;51.982;4.450;2024-03-06T00:33:32;49.21;;;47.13;;
70450;SDS011;58869;51.982;4.450;2024-03-06T00:35:58;49.22;;;47.04;;
70450;SDS011;58869;51.982;4.450;2024-03-06T00:38:24;47.98;;;46.00;;
70450;SDS011;58869;51.982;4.450;2024-03-06T00:40:49;47.95;;;45.78;;
70450;SDS011;58869;51.982;4.450;2024-03-06T00:43:15;47.52;;;45.99;;
70450;SDS011;58869;51.982;4.450;2024-03-06T00:45:40;47.53;;;45.39;;
70450;SDS011;58869;51.982;4.450;2024-03-06T00:48:06;46.82;;;44.87;;
70450;SDS011;58869;51.982;4.450;2024-03-06T00:50:32;45.57;;;43.92;;
70450;SDS011;58869;51.982;4.450;2024-03-06T00:52:57;46.04;;;43.78;;
70450;SDS011;58869;51.982;4.450;2024-03-06T00:55:23;44.74;;;43.16;;
70450;SDS011;58869;51.982;4.450;2024-03-06T00:57:48;44.97;;;43.12;;
70450;SDS011;58869;51.982;4.450;2024-03-06T01:00:14;42.28;;;41.48;;
70450;SDS011;58869;51.982;4.450;2024-03-06T01:02:41;44.20;;;42.61;;
70450;SDS011;58869;51.982;4.450;2024-03-06T01:05:06;43.58;;;41.55;;
70450;SDS011;58869;51.982;4.450;2024-03-06T01:07:32;43.56;;;41.88;;
70450;SDS011;58869;51.982;4.450;2024-03-06T01:09:59;43.16;;;41.86;;
70450;SDS011;58869;51.982;4.450;2024-03-06T01:12:26;44.89;;;42.87;;
70450;SDS011;58869;51.982;4.450;2024-03-06T01:14:52;44.99;;;43.13;;
70450;SDS011;58869;51.982;4.450;2024-03-06T01:17:18;44.99;;;43.21;;
70450;SDS011;58869;51.982;4.450;2024-03-06T01:19:43;44.83;;;43.06;;
70450;SDS011;58869;51.982;4.450;2024-03-06T01:22:09;44.53;;;43.69;;
70450;SDS011;58869;51.982;4.450;2024-03-06T01:24:41;45.25;;;43.81;;
70450;SDS011;58869;51.982;4.450;2024-03-06T01:27:06;44.39;;;43.31;;
70450;SDS011;58869;51.982;4.450;2024-03-06T01:29:32;44.35;;;42.86;;
70450;SDS011;58869;51.982;4.450;2024-03-06T01:31:58;42.94;;;41.69;;
70450;SDS011;58869;51.982;4.450;2024-03-06T01:34:24;42.76;;;41.44;;
70450;SDS011;58869;51.982;4.450;2024-03-06T01:39:16;44.89;;;43.43;;
70450;SDS011;58869;51.982;4.450;2024-03-06T01:41:45;41.73;;;40.50;;
70450;SDS011;58869;51.982;4.450;2024-03-06T01:44:11;42.27;;;40.71;;
70450;SDS011;58869;51.982;4.450;2024-03-06T01:46:38;40.61;;;39.35;;
70450;SDS011;58869;51.982;4.450;2024-03-06T01:49:03;42.56;;;40.95;;
70450;SDS011;58869;51.982;4.450;2024-03-06T01:51:29;42.85;;;41.43;;
70450;SDS011;58869;51.982;4.450;2024-03-06T01:53:56;42.67;;;41.45;;
70450;SDS011;58869;51.982;4.450;2024-03-06T01:56:23;42.99;;;41.82;;
70450;SDS011;58869;51.982;4.450;2024-03-06T01:58:49;42.29;;;41.33;;
70450;SDS011;58869;51.982;4.450;2024-03-06T02:01:15;45.25;;;43.97;;
70450;SDS011;58869;51.982;4.450;2024-03-06T02:03:41;43.44;;;42.61;;
70450;SDS011;58869;51.982;4.450;2024-03-06T02:06:07;44.52;;;43.03;;
70450;SDS011;58869;51.982;4.450;2024-03-06T02:08:35;43.90;;;42.70;;
70450;SDS011;58869;51.982;4.450;2024-03-06T02:11:00;44.32;;;43.12;;
70450;SDS011;58869;51.982;4.450;2024-03-06T02:13:29;44.20;;;43.08;;
70450;SDS011;58869;51.982;4.450;2024-03-06T02:15:54;43.50;;;42.31;;
70450;SDS011;58869;51.982;4.450;2024-03-06T02:18:20;44.45;;;43.20;;
70450;SDS011;58869;51.982;4.450;2024-03-06T02:20:46;41.63;;;41.10;;
70450;SDS011;58869;51.982;4.450;2024-03-06T02:23:15;41.52;;;40.79;;
70450;SDS011;58869;51.982;4.450;2024-03-06T02:25:42;40.81;;;40.41;;
70450;SDS011;58869;51.982;4.450;2024-03-06T02:28:08;41.32;;;40.54;;
70450;SDS011;58869;51.982;4.450;2024-03-06T02:30:33;40.17;;;39.47;;
70450;SDS011;58869;51.982;4.450;2024-03-06T02:33:02;39.35;;;39.12;;
70450;SDS011;58869;51.982;4.450;2024-03-06T02:35:29;40.34;;;39.71;;
70450;SDS011;58869;51.982;4.450;2024-03-06T02:37:55;39.20;;;38.47;;
70450;SDS011;58869;51.982;4.450;2024-03-06T02:40:24;40.58;;;40.27;;
70450;SDS011;58869;51.982;4.450;2024-03-06T02:42:49;40.50;;;39.90;;
70450;SDS011;58869;51.982;4.450;2024-03-06T02:45:15;40.63;;;40.01;;
70450;SDS011;58869;51.982;4.450;2024-03-06T02:47:40;40.91;;;40.20;;
70450;SDS011;58869;51.982;4.450;2024-03-06T02:50:06;39.91;;;39.59;;
70450;SDS011;58869;51.982;4.450;2024-03-06T02:52:32;42.60;;;41.59;;
70450;SDS011;58869;51.982;4.450;2024-03-06T02:54:59;41.42;;;40.85;;
70450;SDS011;58869;51.982;4.450;2024-03-06T02:57:28;41.95;;;41.39;;
70450;SDS011;58869;51.982;4.450;2024-03-06T02:59:57;42.93;;;41.97;;
70450;SDS011;58869;51.982;4.450;2024-03-06T03:02:23;42.66;;;42.43;;
70450;SDS011;58869;51.982;4.450;2024-03-06T03:04:50;44.56;;;43.23;;
70450;SDS011;58869;51.982;4.450;2024-03-06T03:07:20;42.92;;;42.51;;
70450;SDS011;58869;51.982;4.450;2024-03-06T03:09:47;43.65;;;43.14;;
70450;SDS011;58869;51.982;4.450;2024-03-06T03:12:13;43.32;;;42.92;;
70450;SDS011;58869;51.982;4.450;2024-03-06T03:14:41;43.95;;;43.19;;
70450;SDS011;58869;51.982;4.450;2024-03-06T03:17:08;44.34;;;43.83;;
70450;SDS011;58869;51.982;4.450;2024-03-06T03:19:34;43.96;;;43.42;;
70450;SDS011;58869;51.982;4.450;2024-03-06T03:22:00;44.11;;;43.82;;
70450;SDS011;58869;51.982;4.450;2024-03-06T03:24:25;44.71;;;44.50;;
70450;SDS011;58869;51.982;4.450;2024-03-06T03:26:52;44.97;;;44.07;;
70450;SDS011;58869;51.982;4.450;2024-03-06T03:29:18;44.92;;;44.42;;
70450;SDS011;58869;51.982;4.450;2024-03-06T03:31:43;46.36;;;45.79;;
70450;SDS011;58869;51.982;4.450;2024-03-06T03:34:09;47.55;;;46.44;;
70450;SDS011;58869;51.982;4.450;2024-03-06T03:36:39;46.15;;;45.38;;
70450;SDS011;58869;51.982;4.450;2024-03-06T03:39:10;46.56;;;45.90;;
70450;SDS011;58869;51.982;4.450;2024-03-06T03:41:44;47.06;;;46.52;;
70450;SDS011;58869;51.982;4.450;2024-03-06T03:44:11;46.61;;;45.66;;
70450;SDS011;58869;51.982;4.450;2024-03-06T03:46:40;46.30;;;45.73;;
70450;SDS011;58869;51.982;4.450;2024-03-06T03:49:05;46.48;;;45.91;;
70450;SDS011;58869;51.982;4.450;2024-03-06T03:51:31;46.18;;;45.70;;
70450;SDS011;58869;51.982;4.450;2024-03-06T03:53:56;46.24;;;45.94;;
70450;SDS011;58869;51.982;4.450;2024-03-06T03:56:25;46.82;;;46.08;;
70450;SDS011;58869;51.982;4.450;2024-03-06T03:58:50;45.94;;;45.39;;
70450;SDS011;58869;51.982;4.450;2024-03-06T04:01:16;46.73;;;46.13;;
70450;SDS011;58869;51.982;4.450;2024-03-06T04:03:41;45.86;;;45.43;;
70450;SDS011;58869;51.982;4.450;2024-03-06T04:06:10;48.21;;;47.13;;
70450;SDS011;58869;51.982;4.450;2024-03-06T04:08:38;48.17;;;46.95;;
70450;SDS011;58869;51.982;4.450;2024-03-06T04:11:07;47.53;;;46.83;;
70450;SDS011;58869;51.982;4.450;2024-03-06T04:13:36;48.74;;;47.98;;
70450;SDS011;58869;51.982;4.450;2024-03-06T04:16:03;49.55;;;48.23;;
70450;SDS011;58869;51.982;4.450;2024-03-06T04:18:30;47.51;;;46.91;;
70450;SDS011;58869;51.982;4.450;2024-03-06T04:21:08;46.90;;;46.49;;
70450;SDS011;58869;51.982;4.450;2024-03-06T04:23:36;46.03;;;45.62;;
70450;SDS011;58869;51.982;4.450;2024-03-06T04:26:01;46.25;;;45.71;;
70450;SDS011;58869;51.982;4.450;2024-03-06T04:28:28;48.73;;;47.74;;
70450;SDS011;58869;51.982;4.450;2024-03-06T04:30:54;46.64;;;46.11;;
70450;SDS011;58869;51.982;4.450;2024-03-06T04:33:20;47.48;;;46.87;;
70450;SDS011;58869;51.982;4.450;2024-03-06T04:35:46;48.16;;;47.19;;
70450;SDS011;58869;51.982;4.450;2024-03-06T04:38:11;47.95;;;46.99;;
70450;SDS011;58869;51.982;4.450;2024-03-06T04:40:37;49.23;;;48.39;;
70450;SDS011;58869;51.982;4.450;2024-03-06T04:43:02;47.23;;;46.59;;
70450;SDS011;58869;51.982;4.450;2024-03-06T04:45:28;47.66;;;46.93;;
70450;SDS011;58869;51.982;4.450;2024-03-06T04:47:54;47.91;;;47.25;;
70450;SDS011;58869;51.982;4.450;2024-03-06T04:50:22;47.08;;;46.56;;
70450;SDS011;58869;51.982;4.450;2024-03-06T04:52:48;46.55;;;46.34;;
70450;SDS011;58869;51.982;4.450;2024-03-06T04:55:13;47.76;;;47.14;;
70450;SDS011;58869;51.982;4.450;2024-03-06T04:57:42;48.40;;;47.91;;
70450;SDS011;58869;51.982;4.450;2024-03-06T05:00:09;47.33;;;46.68;;
70450;SDS011;58869;51.982;4.450;2024-03-06T05:02:35;47.31;;;46.87;;
70450;SDS011;58869;51.982;4.450;2024-03-06T05:05:02;47.99;;;47.06;;
70450;SDS011;58869;51.982;4.450;2024-03-06T05:07:29;48.54;;;47.45;;
70450;SDS011;58869;51.982;4.450;2024-03-06T05:09:55;48.07;;;47.07;;
70450;SDS011;58869;51.982;4.450;2024-03-06T05:12:22;46.79;;;46.19;;
70450;SDS011;58869;51.982;4.450;2024-03-06T05:14:48;46.12;;;45.54;;
70450;SDS011;58869;51.982;4.450;2024-03-06T05:17:14;46.37;;;45.86;;
70450;SDS011;58869;51.982;4.450;2024-03-06T05:19:39;44.72;;;44.46;;
70450;SDS011;58869;51.982;4.450;2024-03-06T05:22:05;43.97;;;43.77;;
70450;SDS011;58869;51.982;4.450;2024-03-06T05:24:30;43.54;;;42.98;;
70450;SDS011;58869;51.982;4.450;2024-03-06T05:26:56;44.31;;;43.56;;
70450;SDS011;58869;51.982;4.450;2024-03-06T05:29:21;41.31;;;41.09;;
70450;SDS011;58869;51.982;4.450;2024-03-06T05:31:47;42.48;;;42.17;;
70450;SDS011;58869;51.982;4.450;2024-03-06T05:34:12;41.70;;;41.37;;
70450;SDS011;58869;51.982;4.450;2024-03-06T05:36:38;40.82;;;40.44;;
70450;SDS011;58869;51.982;4.450;2024-03-06T05:39:04;41.45;;;40.99;;
70450;SDS011;58869;51.982;4.450;2024-03-06T05:41:37;41.60;;;41.00;;
70450;SDS011;58869;51.982;4.450;2024-03-06T05:44:02;41.59;;;41.20;;
70450;SDS011;58869;51.982;4.450;2024-03-06T05:46:29;42.85;;;42.20;;
70450;SDS011;58869;51.982;4.450;2024-03-06T05:48:54;44.73;;;43.63;;
70450;SDS011;58869;51.982;4.450;2024-03-06T05:51:20;43.55;;;43.44;;
70450;SDS011;58869;51.982;4.450;2024-03-06T05:53:45;43.17;;;42.88;;
70450;SDS011;58869;51.982;4.450;2024-03-06T05:56:11;44.11;;;43.15;;
70450;SDS011;58869;51.982;4.450;2024-03-06T05:58:36;44.09;;;43.49;;
70450;SDS011;58869;51.982;4.450;2024-03-06T06:01:02;45.55;;;44.51;;
70450;SDS011;58869;51.982;4.450;2024-03-06T06:03:29;44.55;;;44.11;;
70450;SDS011;58869;51.982;4.450;2024-03-06T06:05:55;45.02;;;44.24;;
70450;SDS011;58869;51.982;4.450;2024-03-06T06:08:21;43.63;;;43.45;;
70450;SDS011;58869;51.982;4.450;2024-03-06T06:10:46;44.22;;;43.98;;
70450;SDS011;58869;51.982;4.450;2024-03-06T06:13:12;45.54;;;45.20;;
70450;SDS011;58869;51.982;4.450;2024-03-06T06:15:40;44.92;;;44.87;;
70450;SDS011;58869;51.982;4.450;2024-03-06T06:18:09;45.26;;;45.12;;
70450;SDS011;58869;51.982;4.450;2024-03-06T06:20:35;43.98;;;43.90;;
70450;SDS011;58869;51.982;4.450;2024-03-06T06:26:14;43.88;;;43.19;;
70450;SDS011;58869;51.982;4.450;2024-03-06T06:28:58;42.82;;;42.54;;
70450;SDS011;58869;51.982;4.450;2024-03-06T06:31:24;42.65;;;42.44;;
70450;SDS011;58869;51.982;4.450;2024-03-06T06:33:55;42.68;;;41.95;;
70450;SDS011;58869;51.982;4.450;2024-03-06T06:36:44;41.91;;;41.60;;
70450;SDS011;58869;51.982;4.450;2024-03-06T06:46:35;43.40;;;42.40;;
70450;SDS011;58869;51.982;4.450;2024-03-06T06:49:18;42.26;;;42.03;;
70450;SDS011;58869;51.982;4.450;2024-03-06T06:51:56;42.59;;;42.08;;
70450;SDS011;58869;51.982;4.450;2024-03-06T06:54:24;41.65;;;41.53;;
70450;SDS011;58869;51.982;4.450;2024-03-06T07:03:40;42.69;;;42.49;;
70450;SDS011;58869;51.982;4.450;2024-03-06T07:06:17;43.92;;;43.35;;
70450;SDS011;58869;51.982;4.450;2024-03-06T07:11:54;43.50;;;43.27;;
70450;SDS011;58869;51.982;4.450;2024-03-06T07:20:36;41.17;;;40.96;;
70450;SDS011;58869;51.982;4.450;2024-03-06T07:23:10;40.76;;;40.62;;
70450;SDS011;58869;51.982;4.450;2024-03-06T07:25:38;40.67;;;40.58;;
70450;SDS011;58869;51.982;4.450;2024-03-06T07:28:04;40.00;;;39.70;;
70450;SDS011;58869;51.982;4.450;2024-03-06T07:30:30;41.21;;;40.91;;
70450;SDS011;58869;51.982;4.450;2024-03-06T07:32:56;41.52;;;41.37;;
70450;SDS011;58869;51.982;4.450;2024-03-06T07:35:22;41.02;;;40.72;;
70450;SDS011;58869;51.982;4.450;2024-03-06T07:37:49;40.52;;;40.42;;
70450;SDS011;58869;51.982;4.450;2024-03-06T07:40:15;40.34;;;40.13;;
70450;SDS011;58869;51.982;4.450;2024-03-06T07:42:43;39.52;;;39.45;;
70450;SDS011;58869;51.982;4.450;2024-03-06T07:45:09;37.35;;;37.22;;
70450;SDS011;58869;51.982;4.450;2024-03-06T07:47:35;38.81;;;38.81;;
70450;SDS011;58869;51.982;4.450;2024-03-06T07:50:03;38.48;;;38.15;;
70450;SDS011;58869;51.982;4.450;2024-03-06T07:52:31;38.97;;;38.88;;
70450;SDS011;58869;51.982;4.450;2024-03-06T07:54:57;38.27;;;38.26;;
70450;SDS011;58869;51.982;4.450;2024-03-06T07:57:25;39.63;;;39.62;;
70450;SDS011;58869;51.982;4.450;2024-03-06T07:59:51;39.45;;;39.43;;
70450;SDS011;58869;51.982;4.450;2024-03-06T08:02:20;41.16;;;41.15;;
70450;SDS011;58869;51.982;4.450;2024-03-06T08:04:46;40.69;;;40.32;;
70450;SDS011;58869;51.982;4.450;2024-03-06T08:07:12;40.77;;;40.68;;
70450;SDS011;58869;51.982;4.450;2024-03-06T08:09:38;40.95;;;40.90;;
70450;SDS011;58869;51.982;4.450;2024-03-06T08:12:03;41.00;;;40.97;;
70450;SDS011;58869;51.982;4.450;2024-03-06T08:14:29;41.77;;;41.74;;
70450;SDS011;58869;51.982;4.450;2024-03-06T08:16:55;43.06;;;43.05;;
70450;SDS011;58869;51.982;4.450;2024-03-06T08:19:20;42.03;;;41.80;;
70450;SDS011;58869;51.982;4.450;2024-03-06T08:21:46;42.10;;;41.99;;
70450;SDS011;58869;51.982;4.450;2024-03-06T08:24:12;42.96;;;42.84;;
70450;SDS011;58869;51.982;4.450;2024-03-06T08:26:40;42.82;;;42.82;;
70450;SDS011;58869;51.982;4.450;2024-03-06T08:29:08;43.51;;;43.50;;
70450;SDS011;58869;51.982;4.450;2024-03-06T08:31:33;43.71;;;43.71;;
70450;SDS011;58869;51.982;4.450;2024-03-06T08:33:59;44.80;;;44.70;;
70450;SDS011;58869;51.982;4.450;2024-03-06T08:36:24;44.27;;;44.17;;
70450;SDS011;58869;51.982;4.450;2024-03-06T08:38:50;44.42;;;44.23;;
70450;SDS011;58869;51.982;4.450;2024-03-06T08:41:16;43.97;;;43.92;;
70450;SDS011;58869;51.982;4.450;2024-03-06T08:43:41;42.19;;;42.19;;
70450;SDS011;58869;51.982;4.450;2024-03-06T08:46:10;42.72;;;42.68;;
70450;SDS011;58869;51.982;4.450;2024-03-06T08:48:38;42.89;;;42.89;;
70450;SDS011;58869;51.982;4.450;2024-03-06T08:51:04;43.20;;;43.20;;
70450;SDS011;58869;51.982;4.450;2024-03-06T08:53:35;44.01;;;43.95;;
70450;SDS011;58869;51.982;4.450;2024-03-06T08:56:02;43.91;;;43.88;;
70450;SDS011;58869;51.982;4.450;2024-03-06T08:58:33;44.03;;;44.03;;
70450;SDS011;58869;51.982;4.450;2024-03-06T09:01:01;44.08;;;44.08;;
70450;SDS011;58869;51.982;4.450;2024-03-06T09:03:27;43.39;;;43.38;;
70450;SDS011;58869;51.982;4.450;2024-03-06T09:05:52;42.00;;;41.99;;
70450;SDS011;58869;51.982;4.450;2024-03-06T09:08:18;43.18;;;43.18;;
70450;SDS011;58869;51.982;4.450;2024-03-06T09:10:44;42.25;;;42.25;;
70450;SDS011;58869;51.982;4.450;2024-03-06T09:13:09;41.75;;;41.68;;
70450;SDS011;58869;51.982;4.450;2024-03-06T09:15:35;43.96;;;43.93;;
70450;SDS011;58869;51.982;4.450;2024-03-06T09:18:00;43.47;;;43.47;;
70450;SDS011;58869;51.982;4.450;2024-03-06T09:20:26;43.84;;;43.81;;
70450;SDS011;58869;51.982;4.450;2024-03-06T09:22:51;43.70;;;43.69;;
70450;SDS011;58869;51.982;4.450;2024-03-06T09:25:19;43.58;;;43.57;;
70450;SDS011;58869;51.982;4.450;2024-03-06T09:27:44;42.91;;;42.85;;
70450;SDS011;58869;51.982;4.450;2024-03-06T09:30:10;40.90;;;40.89;;
70450;SDS011;58869;51.982;4.450;2024-03-06T09:32:38;41.53;;;41.38;;
70450;SDS011;58869;51.982;4.450;2024-03-06T09:35:04;40.95;;;40.95;;
70450;SDS011;58869;51.982;4.450;2024-03-06T09:37:29;40.13;;;40.11;;
70450;SDS011;58869;51.982;4.450;2024-03-06T09:39:56;39.43;;;39.43;;
70450;SDS011;58869;51.982;4.450;2024-03-06T09:42:22;35.25;;;35.24;;
70450;SDS011;58869;51.982;4.450;2024-03-06T09:44:48;29.49;;;29.48;;
70450;SDS011;58869;51.982;4.450;2024-03-06T09:47:15;28.63;;;28.61;;
70450;SDS011;58869;51.982;4.450;2024-03-06T09:49:51;29.91;;;29.88;;
70450;SDS011;58869;51.982;4.450;2024-03-06T09:52:21;29.68;;;29.56;;
70450;SDS011;58869;51.982;4.450;2024-03-06T09:54:49;30.92;;;30.72;;
70450;SDS011;58869;51.982;4.450;2024-03-06T09:57:17;31.01;;;30.90;;
70450;SDS011;58869;51.982;4.450;2024-03-06T09:59:42;29.19;;;29.18;;
70450;SDS011;58869;51.982;4.450;2024-03-06T10:02:13;26.63;;;26.62;;
70450;SDS011;58869;51.982;4.450;2024-03-06T10:04:54;26.22;;;26.19;;
70450;SDS011;58869;51.982;4.450;2024-03-06T10:07:19;26.28;;;26.26;;
70450;SDS011;58869;51.982;4.450;2024-03-06T10:09:46;26.85;;;26.78;;
70450;SDS011;58869;51.982;4.450;2024-03-06T10:12:12;24.85;;;24.83;;
70450;SDS011;58869;51.982;4.450;2024-03-06T10:14:48;23.55;;;23.54;;
70450;SDS011;58869;51.982;4.450;2024-03-06T10:17:20;23.79;;;23.67;;
70450;SDS011;58869;51.982;4.450;2024-03-06T10:19:52;24.49;;;24.40;;
70450;SDS011;58869;51.982;4.450;2024-03-06T10:22:20;24.36;;;24.31;;
70450;SDS011;58869;51.982;4.450;2024-03-06T10:24:49;24.40;;;23.91;;
70450;SDS011;58869;51.982;4.450;2024-03-06T10:27:15;23.94;;;23.52;;
70450;SDS011;58869;51.982;4.450;2024-03-06T10:29:42;23.39;;;23.23;;
70450;SDS011;58869;51.982;4.450;2024-03-06T10:32:08;21.35;;;21.33;;
70450;SDS011;58869;51.982;4.450;2024-03-06T10:34:33;20.59;;;20.58;;
70450;SDS011;58869;51.982;4.450;2024-03-06T10:37:01;19.11;;;19.10;;
70450;SDS011;58869;51.982;4.450;2024-03-06T10:39:33;19.48;;;19.43;;
70450;SDS011;58869;51.982;4.450;2024-03-06T10:42:03;19.37;;;19.12;;
70450;SDS011;58869;51.982;4.450;2024-03-06T10:44:53;19.78;;;19.74;;
70450;SDS011;58869;51.982;4.450;2024-03-06T10:47:20;19.30;;;18.94;;
70450;SDS011;58869;51.982;4.450;2024-03-06T10:49:48;19.00;;;18.75;;
70450;SDS011;58869;51.982;4.450;2024-03-06T10:52:15;19.07;;;19.05;;
70450;SDS011;58869;51.982;4.450;2024-03-06T10:54:44;19.63;;;19.59;;
70450;SDS011;58869;51.982;4.450;2024-03-06T10:57:11;18.50;;;18.47;;
70450;SDS011;58869;51.982;4.450;2024-03-06T10:59:37;18.63;;;18.58;;
70450;SDS011;58869;51.982;4.450;2024-03-06T11:02:04;18.47;;;18.46;;
70450;SDS011;58869;51.982;4.450;2024-03-06T11:04:31;16.48;;;16.45;;
70450;SDS011;58869;51.982;4.450;2024-03-06T11:07:00;17.99;;;17.86;;
70450;SDS011;58869;51.982;4.450;2024-03-06T11:09:27;16.74;;;16.73;;
70450;SDS011;58869;51.982;4.450;2024-03-06T11:11:54;14.91;;;14.91;;
70450;SDS011;58869;51.982;4.450;2024-03-06T11:14:23;14.88;;;14.87;;
70450;SDS011;58869;51.982;4.450;2024-03-06T11:17:02;15.71;;;15.71;;
70450;SDS011;58869;51.982;4.450;2024-03-06T11:19:32;16.30;;;16.30;;
70450;SDS011;58869;51.982;4.450;2024-03-06T11:25:55;15.40;;;15.40;;
70450;SDS011;58869;51.982;4.450;2024-03-06T11:28:21;15.02;;;15.02;;
70450;SDS011;58869;51.982;4.450;2024-03-06T11:31:09;15.04;;;15.04;;
70450;SDS011;58869;51.982;4.450;2024-03-06T11:33:39;13.83;;;13.83;;
70450;SDS011;58869;51.982;4.450;2024-03-06T11:36:27;14.56;;;14.56;;
70450;SDS011;58869;51.982;4.450;2024-03-06T11:41:24;14.05;;;14.05;;
70450;SDS011;58869;51.982;4.450;2024-03-06T11:43:51;13.61;;;13.61;;
70450;SDS011;58869;51.982;4.450;2024-03-06T11:46:18;13.02;;;13.02;;
70450;SDS011;58869;51.982;4.450;2024-03-06T11:48:55;12.22;;;12.22;;
70450;SDS011;58869;51.982;4.450;2024-03-06T11:51:24;11.43;;;11.43;;
70450;SDS011;58869;51.982;4.450;2024-03-06T11:53:50;10.98;;;10.98;;
70450;SDS011;58869;51.982;4.450;2024-03-06T11:56:17;9.96;;;9.96;;
70450;SDS011;58869;51.982;4.450;2024-03-06T11:58:45;8.55;;;8.55;;
70450;SDS011;58869;51.982;4.450;2024-03-06T12:01:12;10.33;;;10.33;;
70450;SDS011;58869;51.982;4.450;2024-03-06T12:03:38;10.54;;;10.54;;
70450;SDS011;58869;51.982;4.450;2024-03-06T12:06:03;10.86;;;10.86;;
70450;SDS011;58869;51.982;4.450;2024-03-06T12:08:29;11.11;;;11.11;;
70450;SDS011;58869;51.982;4.450;2024-03-06T12:10:55;10.85;;;10.85;;
70450;SDS011;58869;51.982;4.450;2024-03-06T12:13:24;9.46;;;9.46;;
70450;SDS011;58869;51.982;4.450;2024-03-06T12:15:51;8.69;;;8.69;;
70450;SDS011;58869;51.982;4.450;2024-03-06T12:18:17;9.48;;;9.48;;
70450;SDS011;58869;51.982;4.450;2024-03-06T12:20:43;9.20;;;9.20;;
70450;SDS011;58869;51.982;4.450;2024-03-06T12:23:24;9.86;;;9.86;;
70450;SDS011;58869;51.982;4.450;2024-03-06T12:26:01;10.39;;;10.39;;
70450;SDS011;58869;51.982;4.450;2024-03-06T12:28:29;10.20;;;10.20;;
70450;SDS011;58869;51.982;4.450;2024-03-06T12:30:55;10.54;;;10.54;;
70450;SDS011;58869;51.982;4.450;2024-03-06T12:33:26;11.16;;;11.16;;
70450;SDS011;58869;51.982;4.450;2024-03-06T12:36:05;11.69;;;11.69;;
70450;SDS011;58869;51.982;4.450;2024-03-06T12:38:35;12.11;;;12.11;;
70450;SDS011;58869;51.982;4.450;2024-03-06T12:41:02;11.47;;;11.47;;
70450;SDS011;58869;51.982;4.450;2024-03-06T12:43:28;12.46;;;12.46;;
70450;SDS011;58869;51.982;4.450;2024-03-06T12:45:54;12.25;;;12.25;;
70450;SDS011;58869;51.982;4.450;2024-03-06T12:48:23;12.69;;;12.69;;
70450;SDS011;58869;51.982;4.450;2024-03-06T12:50:50;12.05;;;12.05;;
70450;SDS011;58869;51.982;4.450;2024-03-06T12:53:20;11.52;;;11.52;;
70450;SDS011;58869;51.982;4.450;2024-03-06T12:55:46;12.46;;;12.46;;
70450;SDS011;58869;51.982;4.450;2024-03-06T12:58:12;11.52;;;11.52;;
70450;SDS011;58869;51.982;4.450;2024-03-06T13:00:38;10.44;;;10.44;;
70450;SDS011;58869;51.982;4.450;2024-03-06T13:03:04;10.66;;;10.66;;
70450;SDS011;58869;51.982;4.450;2024-03-06T13:05:31;10.68;;;10.68;;
70450;SDS011;58869;51.982;4.450;2024-03-06T13:07:57;11.27;;;11.27;;
70450;SDS011;58869;51.982;4.450;2024-03-06T13:10:24;13.39;;;13.39;;
70450;SDS011;58869;51.982;4.450;2024-03-06T13:12:50;13.66;;;13.66;;
70450;SDS011;58869;51.982;4.450;2024-03-06T13:15:16;13.05;;;13.05;;
70450;SDS011;58869;51.982;4.450;2024-03-06T13:17:41;13.85;;;13.85;;
70450;SDS011;58869;51.982;4.450;2024-03-06T13:20:08;12.61;;;12.61;;
70450;SDS011;58869;51.982;4.450;2024-03-06T13:22:34;12.08;;;12.08;;
70450;SDS011;58869;51.982;4.450;2024-03-06T13:25:00;12.67;;;12.67;;
70450;SDS011;58869;51.982;4.450;2024-03-06T13:27:26;12.21;;;12.21;;
70450;SDS011;58869;51.982;4.450;2024-03-06T13:29:54;11.87;;;11.87;;
70450;SDS011;58869;51.982;4.450;2024-03-06T13:32:21;11.45;;;11.45;;
70450;SDS011;58869;51.982;4.450;2024-03-06T13:34:47;12.07;;;12.07;;
70450;SDS011;58869;51.982;4.450;2024-03-06T13:37:14;11.74;;;11.74;;
70450;SDS011;58869;51.982;4.450;2024-03-06T13:39:39;11.73;;;11.73;;
70450;SDS011;58869;51.982;4.450;2024-03-06T13:42:08;11.33;;;11.33;;
70450;SDS011;58869;51.982;4.450;2024-03-06T13:44:37;12.60;;;12.60;;
70450;SDS011;58869;51.982;4.450;2024-03-06T13:47:03;11.50;;;11.50;;
70450;SDS011;58869;51.982;4.450;2024-03-06T13:49:38;10.53;;;10.53;;
70450;SDS011;58869;51.982;4.450;2024-03-06T13:52:05;11.77;;;11.77;;
70450;SDS011;58869;51.982;4.450;2024-03-06T13:54:32;12.24;;;12.24;;
70450;SDS011;58869;51.982;4.450;2024-03-06T13:56:58;10.68;;;10.68;;
70450;SDS011;58869;51.982;4.450;2024-03-06T13:59:28;9.79;;;9.79;;
70450;SDS011;58869;51.982;4.450;2024-03-06T14:01:55;9.00;;;9.00;;
70450;SDS011;58869;51.982;4.450;2024-03-06T14:04:21;9.25;;;9.25;;
70450;SDS011;58869;51.982;4.450;2024-03-06T14:06:46;10.48;;;10.48;;
70450;SDS011;58869;51.982;4.450;2024-03-06T14:09:13;10.32;;;10.32;;
70450;SDS011;58869;51.982;4.450;2024-03-06T14:11:39;9.66;;;9.66;;
70450;SDS011;58869;51.982;4.450;2024-03-06T14:14:05;9.35;;;9.35;;
70450;SDS011;58869;51.982;4.450;2024-03-06T14:16:31;9.20;;;9.20;;
70450;SDS011;58869;51.982;4.450;2024-03-06T14:18:56;9.02;;;9.02;;
70450;SDS011;58869;51.982;4.450;2024-03-06T14:21:22;8.98;;;8.98;;
70450;SDS011;58869;51.982;4.450;2024-03-06T14:23:47;8.45;;;8.45;;
70450;SDS011;58869;51.982;4.450;2024-03-06T14:26:23;9.22;;;9.22;;
70450;SDS011;58869;51.982;4.450;2024-03-06T14:28:48;9.92;;;9.92;;
70450;SDS011;58869;51.982;4.450;2024-03-06T14:31:20;9.07;;;9.07;;
70450;SDS011;58869;51.982;4.450;2024-03-06T14:33:45;9.65;;;9.65;;
70450;SDS011;58869;51.982;4.450;2024-03-06T14:36:11;9.48;;;9.48;;
70450;SDS011;58869;51.982;4.450;2024-03-06T14:38:37;9.51;;;9.51;;
70450;SDS011;58869;51.982;4.450;2024-03-06T14:41:03;9.78;;;9.78;;
70450;SDS011;58869;51.982;4.450;2024-03-06T14:43:31;9.83;;;9.83;;
70450;SDS011;58869;51.982;4.450;2024-03-06T14:45:59;9.62;;;9.62;;
70450;SDS011;58869;51.982;4.450;2024-03-06T14:48:26;8.66;;;8.66;;
70450;SDS011;58869;51.982;4.450;2024-03-06T14:50:54;9.23;;;9.23;;
70450;SDS011;58869;51.982;4.450;2024-03-06T14:53:20;9.14;;;9.14;;
70450;SDS011;58869;51.982;4.450;2024-03-06T14:55:47;8.93;;;8.93;;
70450;SDS011;58869;51.982;4.450;2024-03-06T14:58:13;8.65;;;8.65;;
70450;SDS011;58869;51.982;4.450;2024-03-06T15:00:38;8.63;;;8.63;;